createdAt,value
2023-01-22T00:01:09.193Z,4.00
2023-01-22T00:03:37.972Z,4.00
2023-01-22T00:06:05.589Z,4.00
2023-01-22T00:08:33.441Z,4.00
2023-01-22T00:11:00.379Z,4.00
2023-01-22T00:13:28.126Z,4.00
2023-01-22T00:15:58.168Z,4.00
2023-01-22T00:18:25.565Z,4.00
2023-01-22T00:20:54.294Z,4.00
2023-01-22T00:23:21.660Z,4.00
2023-01-22T00:25:48.514Z,4.10
2023-01-22T00:28:16.906Z,4.00
2023-01-22T00:30:43.986Z,4.00
2023-01-22T00:33:11.224Z,4.00
2023-01-22T00:35:39.796Z,4.00
2023-01-22T00:38:07.157Z,4.00
2023-01-22T00:40:34.259Z,4.00
2023-01-22T00:43:01.366Z,4.00
2023-01-22T00:45:28.088Z,4.00
2023-01-22T00:47:55.986Z,4.00
2023-01-22T00:50:22.787Z,4.00
2023-01-22T00:52:49.530Z,4.00
2023-01-22T00:55:16.310Z,4.00
2023-01-22T00:57:43.051Z,4.00
2023-01-22T01:00:11.845Z,4.00
2023-01-22T01:02:58.704Z,4.00
2023-01-22T01:05:25.502Z,4.00
2023-01-22T01:07:55.236Z,4.00
2023-01-22T01:10:21.974Z,4.00
2023-01-22T01:12:48.725Z,4.00
2023-01-22T01:15:15.790Z,4.00
2023-01-22T01:17:43.202Z,4.00
2023-01-22T01:20:12.615Z,4.00
2023-01-22T01:22:39.606Z,4.00
2023-01-22T01:25:06.604Z,4.00
2023-01-22T01:27:33.376Z,4.00
2023-01-22T01:30:02.323Z,4.00
2023-01-22T01:32:29.035Z,4.00
2023-01-22T01:34:55.775Z,4.00
2023-01-22T01:37:22.576Z,4.00
2023-01-22T01:40:02.928Z,4.00
2023-01-22T01:42:36.179Z,4.00
2023-01-22T01:45:26.324Z,4.10
2023-01-22T01:48:31.657Z,4.10
2023-01-22T01:51:10.840Z,4.10
2023-01-22T01:53:40.373Z,4.00
2023-01-22T01:56:14.066Z,4.00
2023-01-22T01:58:42.388Z,4.00
2023-01-22T02:01:14.265Z,4.00
2023-01-22T02:03:41.636Z,4.00
2023-01-22T02:06:13.809Z,4.00
2023-01-22T02:08:45.057Z,4.00
2023-01-22T02:11:12.318Z,4.00
2023-01-22T02:13:54.335Z,4.00
2023-01-22T02:16:21.224Z,4.00
2023-01-22T02:18:50.457Z,4.00
2023-01-22T02:21:32.704Z,4.10
2023-01-22T02:24:00.256Z,4.10
2023-01-22T02:26:29.995Z,4.10
2023-01-22T02:28:56.765Z,4.10
2023-01-22T02:31:27.225Z,4.10
2023-01-22T02:33:57.623Z,4.10
2023-01-22T02:36:25.836Z,4.10
2023-01-22T02:38:56.734Z,4.10
2023-01-22T02:41:23.899Z,4.10
2023-01-22T02:43:50.652Z,4.10
2023-01-22T02:46:20.627Z,4.10
2023-01-22T02:48:48.366Z,4.10
2023-01-22T02:51:15.221Z,4.10
2023-01-22T02:53:43.496Z,4.10
2023-01-22T02:56:14.774Z,4.10
2023-01-22T02:58:41.553Z,4.00
2023-01-22T03:01:18.845Z,4.10
2023-01-22T03:03:49.233Z,4.10
2023-01-22T03:06:16.403Z,4.10
2023-01-22T03:08:45.968Z,4.10
2023-01-22T03:11:12.722Z,4.10
2023-01-22T03:13:58.466Z,4.10
2023-01-22T03:16:45.610Z,4.10
2023-01-22T03:19:57.463Z,4.10
2023-01-22T03:22:28.443Z,4.10
2023-01-22T03:25:03.034Z,4.10
2023-01-22T03:28:00.539Z,4.10
2023-01-22T03:30:30.695Z,4.10
2023-01-22T03:32:59.939Z,4.10
2023-01-22T03:35:26.886Z,4.10
2023-01-22T03:37:53.578Z,4.10
2023-01-22T03:40:20.265Z,4.10
2023-01-22T03:42:48.025Z,4.10
2023-01-22T03:45:14.840Z,4.10
2023-01-22T03:47:41.744Z,4.10
2023-01-22T03:50:09.130Z,4.10
2023-01-22T03:52:35.902Z,4.10
2023-01-22T03:55:06.380Z,4.10
2023-01-22T03:57:33.111Z,4.10
2023-01-22T04:00:02.156Z,4.20
2023-01-22T04:02:29.141Z,4.10
2023-01-22T04:04:56.723Z,4.20
2023-01-22T04:07:23.478Z,4.20
2023-01-22T04:09:51.195Z,4.20
2023-01-22T04:12:22.143Z,4.20
2023-01-22T04:14:49.943Z,4.20
2023-01-22T04:17:16.682Z,4.20
2023-01-22T04:19:44.414Z,4.20
2023-01-22T04:22:15.464Z,4.20
2023-01-22T04:24:42.203Z,4.20
2023-01-22T04:27:09.151Z,4.20
2023-01-22T04:29:36.919Z,4.20
2023-01-22T04:32:06.411Z,4.20
2023-01-22T04:34:33.139Z,4.20
2023-01-22T04:37:00.152Z,4.20
2023-01-22T04:39:27.238Z,4.30
2023-01-22T04:41:53.936Z,4.30
2023-01-22T04:44:22.061Z,4.30
2023-01-22T04:46:49.937Z,4.20
2023-01-22T04:49:16.753Z,4.20
2023-01-22T04:51:43.695Z,4.20
2023-01-22T04:54:10.407Z,4.20
2023-01-22T04:56:37.609Z,4.20
2023-01-22T04:59:04.291Z,4.20
2023-01-22T05:01:31.063Z,4.30
2023-01-22T05:04:04.941Z,4.30
2023-01-22T05:06:31.807Z,4.20
2023-01-22T05:08:59.929Z,4.30
2023-01-22T05:11:26.835Z,4.30
2023-01-22T05:13:54.351Z,4.30
2023-01-22T05:16:24.106Z,4.30
2023-01-22T05:18:50.810Z,4.30
2023-01-22T05:21:18.779Z,4.20
2023-01-22T05:23:45.964Z,4.30
2023-01-22T05:26:12.787Z,4.20
2023-01-22T05:28:40.658Z,4.30
2023-01-22T05:31:07.917Z,4.20
2023-01-22T05:33:35.199Z,4.20
2023-01-22T05:36:03.107Z,4.30
2023-01-22T05:38:32.155Z,4.20
2023-01-22T05:40:58.934Z,4.30
2023-01-22T05:43:25.802Z,4.30
2023-01-22T05:45:52.879Z,4.30
2023-01-22T05:48:19.733Z,4.30
2023-01-22T05:50:46.619Z,4.30
2023-01-22T05:53:20.205Z,4.30
2023-01-22T05:55:48.058Z,4.30
2023-01-22T05:58:14.998Z,4.30
2023-01-22T06:00:42.759Z,4.30
2023-01-22T06:03:11.169Z,4.30
2023-01-22T06:05:39.421Z,4.30
2023-01-22T06:08:06.244Z,4.30
2023-01-22T06:10:33.112Z,4.30
2023-01-22T06:12:59.774Z,4.30
2023-01-22T06:15:26.533Z,4.30
2023-01-22T06:17:56.275Z,4.30
2023-01-22T06:20:23.562Z,4.30
2023-01-22T06:22:54.105Z,4.30
2023-01-22T06:25:21.585Z,4.30
2023-01-22T06:27:48.809Z,4.30
2023-01-22T06:30:17.657Z,4.30
2023-01-22T06:32:47.120Z,4.30
2023-01-22T06:35:16.113Z,4.30
2023-01-22T06:37:43.532Z,4.30
2023-01-22T06:40:12.982Z,4.30
2023-01-22T06:42:41.212Z,4.30
2023-01-22T06:45:09.461Z,4.30
2023-01-22T06:47:37.651Z,4.30
2023-01-22T06:50:08.167Z,4.30
2023-01-22T06:52:34.874Z,4.30
2023-01-22T06:55:01.696Z,4.30
2023-01-22T06:57:28.746Z,4.30
2023-01-22T06:59:56.513Z,4.30
2023-01-22T07:02:23.191Z,4.30
2023-01-22T07:04:49.919Z,4.30
2023-01-22T07:07:17.043Z,4.30
2023-01-22T07:09:46.596Z,4.30
2023-01-22T07:12:14.902Z,4.30
2023-01-22T07:14:50.579Z,4.30
2023-01-22T07:17:20.571Z,4.30
2023-01-22T07:19:49.201Z,4.30
2023-01-22T07:22:16.977Z,4.40
2023-01-22T07:24:43.753Z,4.30
2023-01-22T07:27:13.537Z,4.40
2023-01-22T07:29:40.917Z,4.40
2023-01-22T07:32:15.848Z,4.40
2023-01-22T07:35:15.953Z,4.30
2023-01-22T07:40:36.576Z,4.30
2023-01-22T07:46:10.984Z,4.30
2023-01-22T08:00:40.223Z,4.40
2023-01-22T08:25:25.746Z,4.40
2023-01-22T08:28:10.853Z,4.40
2023-01-22T08:30:47.008Z,4.40
2023-01-22T08:36:06.524Z,4.50
2023-01-22T08:38:40.831Z,4.60
2023-01-22T08:55:08.999Z,4.50
2023-01-22T08:57:44.028Z,4.60
2023-01-22T09:05:45.375Z,4.60
2023-01-22T09:11:17.526Z,4.60
2023-01-22T09:13:52.505Z,4.60
2023-01-22T09:16:26.200Z,4.60
2023-01-22T09:22:11.675Z,4.60
2023-01-22T09:24:41.985Z,4.70
2023-01-22T09:27:23.446Z,4.70
2023-01-22T09:30:09.768Z,4.70
2023-01-22T09:32:43.754Z,4.70
2023-01-22T09:35:10.398Z,4.80
2023-01-22T09:37:37.343Z,4.70
2023-01-22T09:40:04.802Z,4.80
2023-01-22T09:42:37.243Z,4.80
2023-01-22T09:45:11.556Z,4.80
2023-01-22T09:47:48.795Z,4.80
2023-01-22T09:50:24.356Z,4.80
2023-01-22T09:52:57.591Z,4.80
2023-01-22T09:55:30.784Z,4.80
2023-01-22T09:58:01.728Z,4.80
2023-01-22T10:00:42.268Z,4.80
2023-01-22T10:03:27.354Z,4.80
2023-01-22T10:06:00.751Z,4.90
2023-01-22T10:09:11.994Z,4.90
2023-01-22T10:11:39.301Z,4.90
2023-01-22T10:14:16.071Z,4.90
2023-01-22T10:16:45.505Z,4.90
2023-01-22T10:19:27.610Z,4.90
2023-01-22T10:22:02.432Z,4.90
2023-01-22T10:24:30.410Z,5.00
2023-01-22T10:26:59.004Z,5.00
2023-01-22T10:29:37.292Z,5.00
2023-01-22T10:32:21.421Z,5.00
2023-01-22T10:35:06.302Z,5.00
2023-01-22T10:37:51.883Z,5.00
2023-01-22T10:40:38.100Z,5.00
2023-01-22T10:43:18.494Z,5.10
2023-01-22T10:45:51.430Z,5.10
2023-01-22T10:48:18.637Z,5.10
2023-01-22T10:50:46.599Z,5.10
2023-01-22T10:53:31.894Z,5.10
2023-01-22T10:56:01.573Z,5.10
2023-01-22T10:58:33.106Z,5.10
2023-01-22T11:01:06.786Z,5.10
2023-01-22T11:03:38.620Z,5.20
2023-01-22T11:06:34.022Z,5.10
2023-01-22T11:09:34.147Z,5.10
2023-01-22T11:12:26.110Z,5.10
2023-01-22T11:15:25.808Z,5.10
2023-01-22T11:17:57.353Z,5.20
2023-01-22T11:20:45.485Z,5.10
2023-01-22T11:23:41.720Z,5.20
2023-01-22T11:26:23.790Z,5.20
2023-01-22T11:29:08.744Z,5.20
2023-01-22T11:31:59.626Z,5.20
2023-01-22T11:34:42.804Z,5.20
2023-01-22T11:37:28.782Z,5.20
2023-01-22T11:40:18.898Z,5.20
2023-01-22T11:43:13.887Z,5.20
2023-01-22T11:46:20.150Z,5.20
2023-01-22T11:49:05.133Z,5.20
2023-01-22T11:51:53.710Z,5.20
2023-01-22T11:54:43.046Z,5.20
2023-01-22T11:57:32.114Z,5.20
2023-01-22T12:00:20.715Z,5.20
2023-01-22T12:03:07.455Z,5.20
2023-01-22T12:06:13.114Z,5.20
2023-01-22T12:08:56.215Z,5.20
2023-01-22T12:12:01.260Z,5.20
2023-01-22T12:14:41.089Z,5.20
2023-01-22T12:17:35.991Z,5.20
2023-01-22T12:20:26.984Z,5.30
2023-01-22T12:23:02.701Z,5.20
2023-01-22T12:25:55.284Z,5.20
2023-01-22T12:28:29.667Z,5.30
2023-01-22T12:31:03.591Z,5.20
2023-01-22T12:33:32.075Z,5.30
2023-01-22T12:36:02.632Z,5.20
2023-01-22T12:38:36.400Z,5.20
2023-01-22T12:41:22.162Z,5.20
2023-01-22T12:43:57.999Z,5.20
2023-01-22T12:46:39.076Z,5.20
2023-01-22T12:49:11.302Z,5.20
2023-01-22T12:51:50.136Z,5.20
2023-01-22T12:54:36.493Z,5.10
2023-01-22T12:57:24.286Z,5.10
2023-01-22T12:59:54.409Z,5.20
2023-01-22T13:02:43.903Z,5.10
2023-01-22T13:05:25.986Z,5.10
2023-01-22T13:08:34.081Z,5.10
2023-01-22T13:11:04.605Z,5.10
2023-01-22T13:13:50.740Z,5.10
2023-01-22T13:16:20.789Z,5.10
2023-01-22T13:18:55.798Z,5.10
2023-01-22T13:21:31.151Z,5.10
2023-01-22T13:24:01.358Z,5.10
2023-01-22T13:26:31.592Z,5.20
2023-01-22T13:29:05.654Z,5.40
2023-01-22T13:31:34.525Z,5.40
2023-01-22T13:34:10.558Z,5.40
2023-01-22T13:36:39.995Z,5.40
2023-01-22T13:39:06.891Z,5.40
2023-01-22T13:41:36.742Z,5.40
2023-01-22T13:44:05.544Z,5.30
2023-01-22T13:46:36.218Z,5.30
2023-01-22T13:49:12.198Z,5.30
2023-01-22T13:51:41.253Z,5.30
2023-01-22T13:54:18.336Z,5.30
2023-01-22T13:56:45.220Z,5.30
2023-01-22T13:59:19.661Z,5.30
2023-01-22T14:01:47.129Z,5.30
2023-01-22T14:04:35.492Z,5.30
2023-01-22T14:07:02.312Z,5.30
2023-01-22T14:09:40.515Z,5.30
2023-01-22T14:12:15.461Z,5.30
2023-01-22T14:14:43.499Z,5.30
2023-01-22T14:17:31.184Z,5.30
2023-01-22T14:20:07.438Z,5.30
2023-01-22T14:22:34.194Z,5.30
2023-01-22T14:25:01.413Z,5.30
2023-01-22T14:27:46.684Z,5.30
2023-01-22T14:30:16.639Z,5.30
2023-01-22T14:32:44.593Z,5.30
2023-01-22T14:35:20.170Z,5.40
2023-01-22T14:37:47.761Z,5.40
2023-01-22T14:40:17.119Z,5.40
2023-01-22T14:42:44.124Z,5.40
2023-01-22T14:45:11.641Z,5.40
2023-01-22T14:47:38.551Z,5.50
2023-01-22T14:50:07.121Z,5.70
2023-01-22T14:52:33.888Z,5.70
2023-01-22T14:55:00.742Z,5.70
2023-01-22T14:57:27.513Z,5.60
2023-01-22T14:59:54.347Z,5.50
2023-01-22T15:02:21.278Z,5.50
2023-01-22T15:04:48.713Z,5.50
2023-01-22T15:07:15.806Z,5.40
2023-01-22T15:09:43.843Z,5.40
2023-01-22T15:12:11.029Z,5.40
2023-01-22T15:14:37.889Z,5.40
2023-01-22T15:17:04.813Z,5.40
2023-01-22T15:19:40.708Z,5.40
2023-01-22T15:22:08.274Z,5.40
2023-01-22T15:24:35.370Z,5.30
2023-01-22T15:27:02.167Z,5.30
2023-01-22T15:29:28.899Z,5.30
2023-01-22T15:31:55.636Z,5.30
2023-01-22T15:34:23.880Z,5.30
2023-01-22T15:36:51.207Z,5.30
2023-01-22T15:39:18.094Z,5.30
2023-01-22T15:41:45.302Z,5.20
2023-01-22T15:44:14.151Z,5.30
2023-01-22T15:46:42.413Z,5.30
2023-01-22T15:49:10.497Z,5.20
2023-01-22T15:51:37.345Z,5.30
2023-01-22T15:54:05.722Z,5.30
2023-01-22T15:56:35.770Z,5.20
2023-01-22T15:59:03.796Z,5.20
2023-01-22T16:01:30.951Z,5.20
2023-01-22T16:03:58.110Z,5.20
2023-01-22T16:06:26.804Z,5.20
2023-01-22T16:08:55.508Z,5.20
2023-01-22T16:11:22.430Z,5.20
2023-01-22T16:13:49.591Z,5.20
2023-01-22T16:16:27.811Z,5.20
2023-01-22T16:18:55.027Z,5.20
2023-01-22T16:21:23.112Z,5.10
2023-01-22T16:23:57.053Z,5.20
2023-01-22T16:26:32.881Z,5.20
2023-01-22T16:29:02.107Z,5.20
2023-01-22T16:31:31.664Z,5.20
2023-01-22T16:34:01.588Z,5.20
2023-01-22T16:36:29.908Z,5.10
2023-01-22T16:38:56.814Z,5.10
2023-01-22T16:41:35.632Z,5.10
2023-01-22T16:44:14.895Z,5.10
2023-01-22T16:46:52.510Z,5.10
2023-01-22T16:49:25.180Z,5.10
2023-01-22T16:51:54.561Z,5.10
2023-01-22T16:54:24.558Z,5.20
2023-01-22T16:56:51.350Z,5.10
2023-01-22T16:59:18.661Z,5.20
2023-01-22T17:01:45.928Z,5.10
2023-01-22T17:04:12.967Z,5.20
2023-01-22T17:06:43.775Z,5.10
2023-01-22T17:09:16.433Z,5.10
2023-01-22T17:11:43.777Z,5.10
2023-01-22T17:14:10.826Z,5.10
2023-01-22T17:16:38.521Z,5.20
2023-01-22T17:19:05.839Z,5.20
2023-01-22T17:21:32.758Z,5.20
2023-01-22T17:23:59.549Z,5.10
2023-01-22T17:26:26.570Z,5.10
2023-01-22T17:28:53.830Z,5.20
2023-01-22T17:31:24.704Z,5.20
2023-01-22T17:33:55.785Z,5.20
2023-01-22T17:36:28.343Z,5.20
2023-01-22T17:38:56.587Z,5.20
2023-01-22T17:41:25.360Z,5.10
2023-01-22T17:43:55.852Z,5.20
2023-01-22T17:46:33.175Z,5.20
2023-01-22T17:49:01.739Z,5.10
2023-01-22T17:51:30.120Z,5.20
2023-01-22T17:53:59.492Z,5.20
2023-01-22T17:56:30.715Z,5.20
2023-01-22T17:59:00.176Z,5.10
2023-01-22T18:01:30.297Z,5.10
2023-01-22T18:04:02.930Z,5.20
2023-01-22T18:06:30.553Z,5.20
2023-01-22T18:08:57.998Z,5.10
2023-01-22T18:11:31.353Z,5.20
2023-01-22T18:14:06.594Z,5.20
2023-01-22T18:16:37.793Z,5.10
2023-01-22T18:19:07.361Z,5.10
2023-01-22T18:21:35.191Z,5.20
2023-01-22T18:24:04.592Z,5.10
2023-01-22T18:26:34.631Z,5.20
2023-01-22T18:29:02.176Z,5.20
2023-01-22T18:31:30.217Z,5.20
2023-01-22T18:34:01.787Z,5.20
2023-01-22T18:36:32.680Z,5.10
2023-01-22T18:39:06.126Z,5.20
2023-01-22T18:41:35.420Z,5.20
2023-01-22T18:44:05.071Z,5.20
2023-01-22T18:46:34.603Z,5.10
2023-01-22T18:49:04.333Z,5.20
2023-01-22T18:51:33.293Z,5.10
2023-01-22T18:54:04.938Z,5.20
2023-01-22T18:56:32.343Z,5.10
2023-01-22T18:58:59.776Z,5.10
2023-01-22T19:01:27.935Z,5.10
2023-01-22T19:03:58.316Z,5.20
2023-01-22T19:06:29.302Z,5.10
2023-01-22T19:09:03.850Z,5.20
2023-01-22T19:11:33.519Z,5.10
2023-01-22T19:14:00.954Z,5.10
2023-01-22T19:16:28.515Z,5.10
2023-01-22T19:19:09.624Z,5.10
2023-01-22T19:21:36.480Z,5.10
2023-01-22T19:24:03.548Z,5.10
2023-01-22T19:26:33.193Z,5.10
2023-01-22T19:29:09.264Z,5.20
2023-01-22T19:31:39.148Z,5.10
2023-01-22T19:34:07.186Z,5.10
2023-01-22T19:36:38.166Z,5.20
2023-01-22T19:39:11.575Z,5.20
2023-01-22T19:41:42.937Z,5.20
2023-01-22T19:44:19.582Z,5.20
2023-01-22T19:47:02.323Z,5.20
2023-01-22T19:49:29.894Z,5.20
2023-01-22T19:51:56.828Z,5.20
2023-01-22T19:54:24.755Z,5.20
2023-01-22T19:56:52.090Z,5.20
2023-01-22T19:59:20.807Z,5.20
2023-01-22T20:01:48.982Z,5.20
2023-01-22T20:04:32.464Z,5.20
2023-01-22T20:07:01.912Z,5.20
2023-01-22T20:09:30.602Z,5.20
2023-01-22T20:11:58.317Z,5.20
2023-01-22T20:14:32.400Z,5.20
2023-01-22T20:16:59.557Z,5.20
2023-01-22T20:19:26.717Z,5.00
2023-01-22T20:21:57.911Z,5.20
2023-01-22T20:24:24.796Z,5.20
2023-01-22T20:26:55.001Z,5.20
2023-01-22T20:29:21.914Z,5.20
2023-01-22T20:31:52.134Z,5.20
2023-01-22T20:34:19.048Z,5.20
2023-01-22T20:36:45.881Z,5.10
2023-01-22T20:39:13.449Z,5.20
2023-01-22T20:41:40.328Z,5.20
2023-01-22T20:44:07.352Z,5.20
2023-01-22T20:46:36.144Z,5.20
2023-01-22T20:49:23.141Z,5.20
2023-01-22T20:51:50.083Z,5.20
2023-01-22T20:54:18.582Z,5.30
2023-01-22T20:56:46.452Z,5.30
2023-01-22T20:59:18.347Z,5.30
2023-01-22T21:01:45.712Z,5.30
2023-01-22T21:04:13.433Z,5.30
2023-01-22T21:06:40.600Z,5.30
2023-01-22T21:09:08.532Z,5.30
2023-01-22T21:11:37.182Z,5.30
2023-01-22T21:14:05.410Z,5.20
2023-01-22T21:16:35.228Z,5.30
2023-01-22T21:19:05.621Z,5.30
2023-01-22T21:21:34.931Z,5.30
2023-01-22T21:24:02.331Z,5.30
2023-01-22T21:26:31.928Z,5.30
2023-01-22T21:29:02.488Z,5.30
2023-01-22T21:31:29.724Z,5.30
2023-01-22T21:34:02.864Z,5.30
2023-01-22T21:36:38.398Z,5.20
2023-01-22T21:39:08.018Z,5.20
2023-01-22T21:41:35.400Z,5.30
2023-01-22T21:44:21.056Z,5.30
2023-01-22T21:46:48.612Z,5.30
2023-01-22T21:49:24.603Z,5.30
2023-01-22T21:52:01.453Z,5.30
2023-01-22T21:54:41.294Z,5.20
2023-01-22T21:57:13.398Z,5.20
2023-01-22T21:59:40.824Z,5.30
2023-01-22T22:02:11.868Z,5.20
2023-01-22T22:04:38.819Z,5.20
2023-01-22T22:07:05.631Z,5.20
2023-01-22T22:09:33.546Z,5.30
2023-01-22T22:12:01.668Z,5.20
2023-01-22T22:14:29.625Z,5.20
2023-01-22T22:16:56.876Z,5.20
2023-01-22T22:19:24.316Z,5.20
2023-01-22T22:21:51.575Z,5.30
2023-01-22T22:24:20.177Z,5.30
2023-01-22T22:26:47.315Z,5.30
2023-01-22T22:29:15.177Z,5.20
2023-01-22T22:31:42.180Z,5.20
2023-01-22T22:34:09.238Z,5.20
2023-01-22T22:36:36.245Z,5.30
2023-01-22T22:39:06.613Z,5.20
2023-01-22T22:41:36.173Z,5.30
2023-01-22T22:44:03.378Z,5.20
2023-01-22T22:46:32.631Z,5.20
2023-01-22T22:49:01.072Z,5.20
2023-01-22T22:51:35.686Z,5.20
2023-01-22T22:54:18.517Z,5.20
2023-01-22T22:56:48.247Z,5.20
2023-01-22T22:59:16.100Z,5.20
2023-01-22T23:01:43.221Z,5.20
2023-01-22T23:04:12.003Z,5.20
2023-01-22T23:06:38.895Z,5.20
2023-01-22T23:09:06.761Z,5.20
2023-01-22T23:11:35.199Z,5.20
2023-01-22T23:14:03.638Z,5.20
2023-01-22T23:16:33.975Z,5.30
2023-01-22T23:19:03.659Z,5.20
2023-01-22T23:21:31.207Z,5.20
2023-01-22T23:23:58.042Z,5.20
2023-01-22T23:26:30.024Z,5.20
2023-01-22T23:29:02.230Z,5.20
2023-01-22T23:31:34.318Z,5.20
2023-01-22T23:34:03.552Z,5.20
2023-01-22T23:36:31.680Z,5.20
2023-01-22T23:38:58.699Z,5.30
2023-01-22T23:41:28.679Z,5.20
2023-01-22T23:43:55.735Z,5.20
2023-01-22T23:46:28.483Z,5.20
2023-01-22T23:48:58.098Z,5.30
2023-01-22T23:51:26.011Z,5.20
2023-01-22T23:53:53.382Z,5.20
2023-01-22T23:56:22.609Z,5.30
2023-01-22T23:58:49.469Z,5.30
